• Join FlightAware (Why Join?)
  • Login
  • US Flag 
05:47AM EDT


 

Airport Tracker/Info


-or-


 

Live Flight TrackerFlight Track Log ✈ EJA102 ✈ 16-Jun-2014 ✈ KTEB - KUNV

Flight Track Log - Related Links

Times and Time Zones

All times are in EDT time to prevent confusion due to time zone crossing. See the EJA102 flight status page for this flight to view local times or setup timezone preferences in your user account.

Time Position Orientation Groundspeed Altitude Reporting Facility
EDT Latitude Longitude Course Direction KTS MPH feet Rate Location/Type
05:03PM 40.8333 -74.1000 255° West 193 222 1,300  Level New York TRACON
05:04PM 40.8167 -74.1833 255° West 252 290 2,200 1,680 Climbing New York TRACON
05:05PM 40.8167 -74.2833 270° West 250 288 4,700 2,520 Climbing New York TRACON
05:06PM 40.8167 -74.3667 270° West 262 302 7,200 2,400 Climbing New York TRACON
05:07PM 40.8006 -74.5075 261° West 292 336 10,500 2,100 Climbing New York Center
05:08PM 40.7847 -74.6053 258° West 304 350 12,300 1,740 Climbing New York Center
05:09PM 40.7619 -74.7328 257° West 320 368 14,000 840 Climbing New York Center
05:10PM 40.7436 -74.8411 257° West 340 391 14,000  Level New York Center
05:11PM 40.7183 -74.9656 255° West 349 402 14,000 60 Level New York Center
05:12PM 40.6925 -75.1008 256° West 354 407 14,200 900 Climbing New York Center
05:13PM 40.6714 -75.2228 257° West 354 407 15,900 900 Climbing New York Center
05:14PM 40.6478 -75.3525 257° West 354 407 16,000  Climbing New York Center
05:15PM 40.6550 -75.4814 274° West 354 407 16,000  Level New York Center
05:16PM 40.6692 -75.6003 279° West 360 414 16,000  Level New York Center
05:17PM 40.6817 -75.7489 276° West 371 427 16,000  Level New York Center
05:18PM 40.6928 -75.8811 276° West 371 427 16,000  Level New York Center
05:19PM 40.7042 -76.0022 277° West 371 427 16,000  Level New York Center
05:20PM 40.7147 -76.1347 276° West 371 427 16,000  Level New York Center
05:21PM 40.7269 -76.2781 276° West 371 427 16,000  Level New York Center
05:22PM 40.7378 -76.4022 277° West 364 419 16,000  Level New York Center
05:23PM 40.7469 -76.5153 276° West 352 405 16,000  Level New York Center
05:24PM 40.7575 -76.6422 276° West 352 405 16,000  Level New York Center
05:25PM 40.7672 -76.7772 275° West 352 405 16,000  Level New York Center
05:26PM 40.7775 -76.9017 276° West 352 405 16,000 -240 Level New York Center
05:27PM 40.7878 -77.0231 276° West 347 399 15,600 -1,200 Descending New York Center
05:28PM 40.7964 -77.1389 276° West 342 394 13,700 -1,980 Descending New York Center
05:29PM 40.8047 -77.2550 275° West 331 381 11,700 -1,860 Descending New York Center
05:30PM 40.8153 -77.3631 277° West 317 365 10,000 -960 Descending New York Center
05:31PM 40.8208 -77.4486 275° West 278 320 9,800 -1,080 Descending New York Center
05:32PM 40.8267 -77.5314 275° West 249 287 7,900 -1,980 Descending New York Center
05:33PM 40.8389 -77.6067 282° West 235 270 5,900 -1,500 Descending New York Center
05:34PM 40.8950 -77.6481 331° Northwest 215 247 5,000 -900 Descending New York Center
05:35PM 40.9386 -77.6881 325° Northwest 204 235 4,200 -420 Descending New York Center
05:36PM 40.9147 -77.7381 238° Southwest 140 161 4,200 -960 Level New York Center
05:37PM 40.8914 -77.7794 233° Southwest 133 153 2,300 -1,920 Descending New York Center